createdAt,value
2023-04-11T00:01:51.170Z,48.33
2023-04-11T00:04:20.617Z,48.55
2023-04-11T00:06:48.411Z,48.75
2023-04-11T00:09:16.608Z,48.97
2023-04-11T00:11:43.544Z,48.93
2023-04-11T00:14:12.438Z,49.26
2023-04-11T00:16:39.566Z,49.24
2023-04-11T00:19:07.666Z,49.57
2023-04-11T00:21:35.723Z,49.62
2023-04-11T00:24:02.517Z,49.83
2023-04-11T00:26:29.282Z,50.01
2023-04-11T00:28:56.324Z,49.91
2023-04-11T00:31:23.280Z,50.16
2023-04-11T00:33:50.147Z,50.31
2023-04-11T00:36:17.267Z,50.32
2023-04-11T00:38:44.669Z,50.55
2023-04-11T00:41:11.603Z,50.75
2023-04-11T00:43:38.393Z,50.61
2023-04-11T00:46:06.258Z,50.93
2023-04-11T00:48:33.220Z,51.02
2023-04-11T00:51:00.270Z,50.85
2023-04-11T00:53:32.381Z,51.00
2023-04-11T00:56:00.505Z,51.04
2023-04-11T00:58:28.014Z,51.20
2023-04-11T01:00:55.090Z,51.23
2023-04-11T01:03:22.842Z,51.18
2023-04-11T01:05:52.362Z,51.34
2023-04-11T01:08:21.247Z,51.51
2023-04-11T01:10:48.414Z,51.47
2023-04-11T01:13:15.424Z,51.54
2023-04-11T01:15:42.255Z,51.73
2023-04-11T01:18:09.475Z,51.51
2023-04-11T01:20:38.482Z,51.83
2023-04-11T01:23:06.369Z,51.83
2023-04-11T01:25:33.188Z,51.84
2023-04-11T01:28:00.062Z,52.13
2023-04-11T01:30:26.858Z,52.09
2023-04-11T01:32:53.673Z,52.34
2023-04-11T01:35:20.665Z,52.28
2023-04-11T01:37:47.547Z,52.49
2023-04-11T01:40:18.177Z,52.23
2023-04-11T01:42:46.144Z,52.41
2023-04-11T01:45:13.347Z,52.47
2023-04-11T01:47:40.539Z,52.23
2023-04-11T01:50:08.973Z,52.43
2023-04-11T01:52:35.863Z,52.60
2023-04-11T01:55:02.712Z,52.39
2023-04-11T01:57:29.532Z,52.42
2023-04-11T01:59:56.288Z,52.59
2023-04-11T02:02:23.320Z,52.81
2023-04-11T02:04:51.274Z,52.59
2023-04-11T02:07:18.067Z,52.50
2023-04-11T02:09:44.897Z,52.66
2023-04-11T02:12:14.900Z,52.46
2023-04-11T02:14:44.484Z,52.73
2023-04-11T02:17:14.393Z,52.65
2023-04-11T02:19:41.513Z,52.69
2023-04-11T02:22:11.494Z,52.53
2023-04-11T02:24:38.909Z,52.48
2023-04-11T02:27:06.090Z,52.59
2023-04-11T02:29:33.288Z,52.57
2023-04-11T02:32:00.345Z,52.55
2023-04-11T02:34:27.493Z,52.53
2023-04-11T02:36:54.400Z,52.42
2023-04-11T02:39:24.188Z,52.46
2023-04-11T02:41:51.288Z,52.40
2023-04-11T02:44:19.231Z,52.45
2023-04-11T02:46:46.033Z,52.39
2023-04-11T02:49:20.356Z,52.18
2023-04-11T02:51:50.334Z,52.22
2023-04-11T02:54:24.587Z,52.27
2023-04-11T02:56:52.668Z,52.32
2023-04-11T02:59:19.815Z,52.26
2023-04-11T03:01:46.704Z,52.36
2023-04-11T03:04:16.100Z,52.22
2023-04-11T03:06:46.051Z,52.42
2023-04-11T03:09:12.823Z,52.16
2023-04-11T03:11:39.638Z,52.33
2023-04-11T03:14:06.409Z,52.30
2023-04-11T03:16:33.244Z,52.49
2023-04-11T03:19:00.445Z,52.23
2023-04-11T03:21:27.443Z,52.33
2023-04-11T03:23:54.505Z,52.42
2023-04-11T03:26:21.735Z,52.46
2023-04-11T03:28:48.529Z,52.50
2023-04-11T03:31:15.374Z,52.32
2023-04-11T03:33:42.181Z,52.51
2023-04-11T03:36:09.243Z,52.60
2023-04-11T03:38:36.098Z,52.66
2023-04-11T03:41:03.081Z,51.86
2023-04-11T03:43:29.989Z,51.30
2023-04-11T03:45:56.879Z,51.64
2023-04-11T03:48:26.418Z,51.39
2023-04-11T03:50:53.264Z,51.18
2023-04-11T03:53:20.342Z,51.42
2023-04-11T03:55:48.939Z,51.21
2023-04-11T03:58:15.995Z,51.27
2023-04-11T04:00:42.781Z,51.72
2023-04-11T04:03:09.780Z,51.65
2023-04-11T04:05:36.704Z,51.54
2023-04-11T04:08:03.776Z,51.80
2023-04-11T04:10:30.554Z,52.23
2023-04-11T04:12:57.343Z,52.11
2023-04-11T04:15:24.321Z,52.07
2023-04-11T04:17:51.713Z,52.23
2023-04-11T04:20:18.569Z,52.25
2023-04-11T04:22:47.362Z,52.35
2023-04-11T04:25:19.893Z,52.41
2023-04-11T04:27:47.379Z,52.47
2023-04-11T04:30:19.061Z,52.94
2023-04-11T04:32:46.297Z,52.98
2023-04-11T04:35:23.819Z,53.21
2023-04-11T04:37:50.821Z,53.23
2023-04-11T04:40:20.502Z,53.64
2023-04-11T04:42:49.925Z,53.70
2023-04-11T04:45:16.704Z,53.85
2023-04-11T04:47:43.583Z,53.90
2023-04-11T04:50:10.769Z,53.94
2023-04-11T04:52:37.548Z,54.40
2023-04-11T04:55:04.746Z,54.20
2023-04-11T04:57:34.076Z,54.28
2023-04-11T05:00:01.042Z,54.46
2023-04-11T05:02:28.081Z,54.35
2023-04-11T05:04:55.174Z,54.72
2023-04-11T05:07:22.488Z,54.63
2023-04-11T05:09:49.308Z,54.67
2023-04-11T05:12:17.049Z,54.82
2023-04-11T05:14:43.843Z,54.59
2023-04-11T05:17:10.603Z,54.87
2023-04-11T05:19:37.410Z,54.62
2023-04-11T05:22:04.148Z,54.72
2023-04-11T05:24:31.205Z,55.02
2023-04-11T05:26:58.182Z,54.89
2023-04-11T05:29:25.026Z,54.99
2023-04-11T05:31:51.824Z,54.80
2023-04-11T05:34:18.629Z,54.99
2023-04-11T05:36:47.106Z,55.00
2023-04-11T05:39:15.013Z,54.92
2023-04-11T05:41:41.946Z,54.67
2023-04-11T05:44:08.821Z,54.97
2023-04-11T05:46:36.879Z,55.07
2023-04-11T05:49:03.840Z,55.10
2023-04-11T05:51:30.764Z,55.12
2023-04-11T05:53:57.788Z,55.30
2023-04-11T05:56:24.935Z,55.30
2023-04-11T05:58:54.831Z,55.53
2023-04-11T06:01:22.140Z,55.57
2023-04-11T06:03:55.608Z,55.64
2023-04-11T06:06:23.527Z,55.67
2023-04-11T06:08:51.209Z,55.83
2023-04-11T06:11:23.029Z,55.94
2023-04-11T06:13:49.845Z,56.00
2023-04-11T06:16:16.669Z,56.22
2023-04-11T06:18:43.602Z,55.91
2023-04-11T06:21:10.397Z,55.99
2023-04-11T06:23:37.193Z,55.93
2023-04-11T06:26:04.051Z,56.06
2023-04-11T06:28:30.972Z,56.02
2023-04-11T06:30:57.725Z,56.02
2023-04-11T06:33:25.424Z,56.02
2023-04-11T06:35:52.336Z,56.01
2023-04-11T06:38:19.136Z,56.01
2023-04-11T06:40:45.880Z,56.14
2023-04-11T06:43:13.427Z,56.14
2023-04-11T06:45:40.245Z,56.15
2023-04-11T06:48:07.072Z,56.19
2023-04-11T06:50:37.712Z,56.11
2023-04-11T06:53:04.489Z,56.19
2023-04-11T06:55:34.372Z,56.09
2023-04-11T06:58:01.293Z,56.41
2023-04-11T07:00:36.998Z,56.39
2023-04-11T07:03:08.720Z,56.42
2023-04-11T07:05:38.289Z,56.71
2023-04-11T07:08:06.304Z,56.52
2023-04-11T07:10:33.077Z,56.46
2023-04-11T07:12:59.825Z,56.87
2023-04-11T07:15:27.828Z,56.64
2023-04-11T07:17:54.701Z,56.61
2023-04-11T07:20:21.698Z,56.86
2023-04-11T07:22:48.472Z,56.76
2023-04-11T07:25:15.376Z,56.84
2023-04-11T07:27:43.569Z,56.68
2023-04-11T07:30:10.855Z,56.80
2023-04-11T07:32:37.653Z,56.98
2023-04-11T07:35:04.849Z,57.03
2023-04-11T07:37:32.500Z,57.12
2023-04-11T07:39:59.299Z,56.98
2023-04-11T07:42:26.120Z,57.00
2023-04-11T07:44:52.895Z,56.95
2023-04-11T07:47:19.866Z,57.08
2023-04-11T07:49:46.685Z,57.05
2023-04-11T07:52:14.416Z,57.04
2023-04-11T07:54:41.437Z,57.06
2023-04-11T07:57:08.200Z,56.89
2023-04-11T07:59:35.047Z,56.98
2023-04-11T08:02:02.911Z,57.03
2023-04-11T08:04:35.725Z,57.12
2023-04-11T08:07:03.416Z,57.11
2023-04-11T08:09:30.434Z,56.92
2023-04-11T08:11:57.416Z,56.90
2023-04-11T08:14:24.281Z,56.92
2023-04-11T08:16:53.025Z,56.92
2023-04-11T08:19:21.020Z,56.88
2023-04-11T08:21:47.829Z,56.85
2023-04-11T08:24:14.591Z,56.57
2023-04-11T08:26:44.591Z,56.75
2023-04-11T08:29:12.478Z,56.59
2023-04-11T08:31:44.400Z,56.42
2023-04-11T08:34:12.387Z,56.20
2023-04-11T08:36:39.203Z,56.44
2023-04-11T08:39:06.567Z,56.39
2023-04-11T08:41:35.795Z,56.67
2023-04-11T08:44:02.761Z,56.62
2023-04-11T08:46:32.767Z,56.74
2023-04-11T08:49:00.924Z,56.57
2023-04-11T08:51:27.836Z,56.57
2023-04-11T08:53:57.821Z,56.29
2023-04-11T08:56:24.925Z,56.37
2023-04-11T08:58:51.677Z,56.16
2023-04-11T09:01:33.377Z,55.83
2023-04-11T09:04:05.425Z,55.77
2023-04-11T09:06:33.719Z,55.88
2023-04-11T09:09:07.952Z,55.76
2023-04-11T09:11:54.898Z,55.82
2023-04-11T09:14:26.706Z,56.03
2023-04-11T09:16:58.535Z,56.06
2023-04-11T09:19:31.452Z,56.03
2023-04-11T09:22:01.297Z,56.21
2023-04-11T09:24:34.013Z,56.23
2023-04-11T09:27:16.721Z,56.07
2023-04-11T09:29:48.436Z,56.00
2023-04-11T09:32:36.589Z,55.95
2023-04-11T09:35:24.906Z,55.95
2023-04-11T09:37:55.338Z,56.54
2023-04-11T09:40:27.695Z,56.31
2023-04-11T09:43:02.281Z,56.82
2023-04-11T09:45:35.848Z,56.62
2023-04-11T09:48:08.986Z,56.47
2023-04-11T09:50:37.562Z,56.22
2023-04-11T09:53:06.714Z,54.79
2023-04-11T09:55:33.537Z,53.80
2023-04-11T09:58:00.766Z,53.97
2023-04-11T10:00:32.442Z,53.98
2023-04-11T10:02:59.475Z,54.53
2023-04-11T10:05:29.024Z,55.13
2023-04-11T10:08:08.694Z,55.82
2023-04-11T10:10:36.728Z,56.55
2023-04-11T10:13:42.543Z,57.05
2023-04-11T10:16:21.560Z,57.57
2023-04-11T10:18:54.216Z,58.08
2023-04-11T10:21:30.356Z,58.54
2023-04-11T10:24:23.218Z,58.80
2023-04-11T10:27:00.012Z,59.37
2023-04-11T10:29:32.244Z,59.72
2023-04-11T10:32:17.232Z,59.73
2023-04-11T10:34:50.454Z,59.79
2023-04-11T10:37:34.112Z,59.36
2023-04-11T10:40:01.256Z,59.36
2023-04-11T10:42:47.395Z,59.17
2023-04-11T10:45:28.881Z,58.69
2023-04-11T10:48:12.957Z,57.93
2023-04-11T10:50:44.696Z,57.51
2023-04-11T10:53:38.878Z,57.54
2023-04-11T10:56:06.060Z,57.56
2023-04-11T10:58:39.636Z,57.40
2023-04-11T11:01:25.765Z,57.41
2023-04-11T11:04:00.108Z,57.60
2023-04-11T11:06:29.002Z,57.97
2023-04-11T11:08:55.959Z,57.67
2023-04-11T11:11:22.789Z,57.84
2023-04-11T11:13:52.207Z,57.06
2023-04-11T11:16:24.984Z,57.38
2023-04-11T11:18:58.862Z,57.17
2023-04-11T11:21:28.684Z,56.78
2023-04-11T11:24:00.504Z,56.19
2023-04-11T11:26:38.577Z,55.16
2023-04-11T11:29:05.768Z,54.70
2023-04-11T11:31:37.526Z,54.20
2023-04-11T11:34:22.262Z,54.64
2023-04-11T11:36:51.108Z,54.62
2023-04-11T11:39:18.736Z,54.94
2023-04-11T11:41:46.412Z,53.76
2023-04-11T11:44:27.719Z,53.80
2023-04-11T11:47:12.814Z,53.96
2023-04-11T11:49:54.719Z,53.80
2023-04-11T11:52:42.407Z,54.03
2023-04-11T11:55:32.073Z,53.28
2023-04-11T11:58:02.082Z,52.97
2023-04-11T12:00:31.702Z,52.72
2023-04-11T12:02:59.942Z,52.79
2023-04-11T12:05:30.310Z,52.41
2023-04-11T12:08:00.361Z,51.18
2023-04-11T12:10:43.451Z,51.14
2023-04-11T12:13:23.603Z,50.28
2023-04-11T12:15:53.353Z,49.47
2023-04-11T12:18:22.368Z,48.97
2023-04-11T12:20:50.136Z,48.68
2023-04-11T12:23:18.013Z,48.11
2023-04-11T12:25:44.885Z,48.71
2023-04-11T12:28:12.630Z,48.52
2023-04-11T12:30:39.770Z,47.96
2023-04-11T12:33:06.569Z,47.56
2023-04-11T12:35:33.632Z,47.27
2023-04-11T12:38:00.588Z,47.54
2023-04-11T12:40:29.315Z,46.55
2023-04-11T12:42:57.378Z,46.72
2023-04-11T12:45:25.787Z,46.58
2023-04-11T12:47:53.202Z,46.33
2023-04-11T12:50:22.811Z,46.48
2023-04-11T12:52:49.605Z,46.31
2023-04-11T12:55:16.688Z,46.27
2023-04-11T12:57:43.769Z,45.83
2023-04-11T13:00:12.760Z,45.48
2023-04-11T13:02:44.155Z,46.28
2023-04-11T13:05:16.295Z,46.41
2023-04-11T13:07:44.649Z,46.80
2023-04-11T13:10:13.491Z,47.71
2023-04-11T13:12:41.638Z,48.05
2023-04-11T13:15:09.729Z,47.80
2023-04-11T13:17:36.928Z,47.01
2023-04-11T13:20:07.884Z,46.97
2023-04-11T13:22:34.722Z,47.17
2023-04-11T13:25:01.515Z,47.02
2023-04-11T13:27:28.463Z,47.16
2023-04-11T13:29:55.204Z,47.25
2023-04-11T13:32:22.020Z,47.67
2023-04-11T13:34:48.926Z,47.70
2023-04-11T13:37:15.819Z,48.21
2023-04-11T13:39:42.948Z,48.22
2023-04-11T13:42:11.510Z,47.83
2023-04-11T13:44:38.305Z,47.72
2023-04-11T13:47:05.298Z,47.43
2023-04-11T13:49:32.104Z,47.55
2023-04-11T13:51:58.868Z,47.20
2023-04-11T13:54:26.142Z,47.63
2023-04-11T13:56:52.932Z,48.05
2023-04-11T13:59:19.826Z,47.97
2023-04-11T14:01:46.760Z,47.73
2023-04-11T14:04:13.742Z,47.03
2023-04-11T14:06:40.884Z,47.31
2023-04-11T14:09:07.696Z,47.00
2023-04-11T14:11:34.488Z,46.80
2023-04-11T14:14:01.469Z,46.30
2023-04-11T14:16:28.361Z,45.80
2023-04-11T14:18:55.230Z,45.89
2023-04-11T14:21:22.744Z,45.85
2023-04-11T14:23:49.560Z,45.80
2023-04-11T14:26:16.944Z,45.62
2023-04-11T14:28:43.806Z,45.74
2023-04-11T14:31:10.836Z,45.34
2023-04-11T14:33:37.729Z,45.25
2023-04-11T14:36:04.646Z,44.89
2023-04-11T14:38:31.435Z,45.18
2023-04-11T14:40:58.306Z,45.33
2023-04-11T14:43:25.079Z,45.31
2023-04-11T14:45:57.229Z,45.29
2023-04-11T14:48:27.070Z,45.49
2023-04-11T14:50:55.243Z,44.43
2023-04-11T14:53:22.887Z,45.08
2023-04-11T14:55:49.693Z,45.36
2023-04-11T14:58:16.935Z,45.83
2023-04-11T15:00:44.671Z,46.07
2023-04-11T15:03:12.313Z,46.10
2023-04-11T15:05:39.375Z,46.03
2023-04-11T15:08:06.286Z,46.08
2023-04-11T15:10:33.154Z,46.30
2023-04-11T15:12:59.923Z,46.31
2023-04-11T15:15:26.693Z,46.38
2023-04-11T15:18:21.460Z,46.39
2023-04-11T15:20:48.776Z,46.63
2023-04-11T15:23:15.729Z,46.21
2023-04-11T15:25:42.527Z,46.65
2023-04-11T15:28:09.594Z,46.68
2023-04-11T15:30:50.855Z,46.51
2023-04-11T15:33:19.567Z,46.74
2023-04-11T15:35:46.609Z,46.58
2023-04-11T15:38:14.507Z,47.24
2023-04-11T15:40:41.412Z,46.87
2023-04-11T15:43:11.502Z,46.85
2023-04-11T15:45:39.737Z,47.12
2023-04-11T15:48:06.873Z,46.56
2023-04-11T15:50:36.756Z,46.31
2023-04-11T15:53:03.545Z,45.99
2023-04-11T15:55:30.586Z,45.83
2023-04-11T15:57:57.436Z,45.85
2023-04-11T16:00:25.084Z,45.92
2023-04-11T16:02:52.187Z,45.40
2023-04-11T16:05:22.014Z,45.08
2023-04-11T16:07:50.203Z,45.49
2023-04-11T16:10:16.966Z,45.28
2023-04-11T16:12:43.822Z,44.83
2023-04-11T16:15:10.781Z,45.28
2023-04-11T16:17:37.670Z,45.42
2023-04-11T16:20:08.822Z,45.27
2023-04-11T16:22:37.481Z,45.23
2023-04-11T16:25:06.823Z,44.96
2023-04-11T16:27:33.703Z,44.90
2023-04-11T16:30:03.049Z,44.82
2023-04-11T16:32:30.044Z,44.62
2023-04-11T16:34:57.871Z,44.54
2023-04-11T16:37:24.930Z,44.61
2023-04-11T16:39:51.778Z,44.56
2023-04-11T16:42:19.350Z,44.23
2023-04-11T16:44:46.445Z,44.63
2023-04-11T16:47:13.329Z,44.37
2023-04-11T16:49:40.320Z,44.40
2023-04-11T16:52:07.131Z,44.64
2023-04-11T16:54:33.872Z,44.53
2023-04-11T16:57:01.633Z,44.58
2023-04-11T16:59:28.497Z,44.56
2023-04-11T17:01:55.491Z,44.46
2023-04-11T17:04:22.549Z,44.63
2023-04-11T17:06:49.424Z,44.55
2023-04-11T17:09:16.244Z,45.05
2023-04-11T17:11:43.025Z,45.19
2023-04-11T17:14:09.775Z,44.78
2023-04-11T17:16:36.649Z,44.73
2023-04-11T17:19:03.784Z,44.76
2023-04-11T17:21:31.835Z,44.98
2023-04-11T17:23:58.959Z,44.86
2023-04-11T17:26:25.920Z,45.00
2023-04-11T17:28:52.838Z,45.14
2023-04-11T17:31:21.586Z,45.35
2023-04-11T17:33:48.838Z,45.21
2023-04-11T17:36:15.700Z,45.29
2023-04-11T17:38:43.271Z,45.27
2023-04-11T17:41:14.845Z,45.60
2023-04-11T17:43:43.666Z,45.93
2023-04-11T17:46:10.710Z,45.80
2023-04-11T17:48:37.733Z,46.02
2023-04-11T17:51:07.761Z,46.07
2023-04-11T17:53:37.012Z,45.99
2023-04-11T17:56:06.157Z,46.43
2023-04-11T17:58:33.581Z,46.29
2023-04-11T18:01:00.389Z,46.59
2023-04-11T18:03:27.439Z,46.52
2023-04-11T18:05:54.852Z,46.85
2023-04-11T18:08:28.747Z,46.83
2023-04-11T18:11:00.409Z,46.82
2023-04-11T18:13:30.205Z,47.16
2023-04-11T18:15:57.013Z,47.23
2023-04-11T18:18:27.278Z,47.33
2023-04-11T18:20:54.063Z,47.20
2023-04-11T18:23:20.825Z,47.59
2023-04-11T18:25:47.970Z,47.52
2023-04-11T18:28:14.782Z,47.53
2023-04-11T18:30:41.561Z,47.84
2023-04-11T18:33:09.424Z,47.87
2023-04-11T18:35:36.671Z,47.94
2023-04-11T18:38:06.149Z,48.02
2023-04-11T18:40:33.478Z,47.88
2023-04-11T18:43:00.818Z,48.07
2023-04-11T18:45:27.656Z,48.19
2023-04-11T18:47:54.580Z,47.98
2023-04-11T18:50:22.498Z,48.45
2023-04-11T18:52:52.998Z,48.42
2023-04-11T18:55:20.876Z,48.52
2023-04-11T18:57:48.853Z,48.72
2023-04-11T19:00:19.259Z,48.87
2023-04-11T19:02:50.205Z,48.75
2023-04-11T19:05:17.949Z,48.87
2023-04-11T19:07:45.723Z,48.79
2023-04-11T19:10:12.957Z,49.10
2023-04-11T19:12:40.966Z,48.98
2023-04-11T19:15:09.134Z,49.02
2023-04-11T19:17:38.248Z,49.26
2023-04-11T19:20:16.499Z,49.15
2023-04-11T19:22:43.528Z,49.17
2023-04-11T19:25:11.882Z,49.41
2023-04-11T19:27:41.455Z,49.48
2023-04-11T19:30:10.129Z,49.57
2023-04-11T19:32:40.622Z,49.42
2023-04-11T19:35:10.478Z,49.60
2023-04-11T19:37:37.614Z,49.62
2023-04-11T19:40:08.007Z,49.95
2023-04-11T19:42:39.723Z,50.05
2023-04-11T19:45:08.699Z,50.32
2023-04-11T19:47:35.593Z,50.01
2023-04-11T19:50:02.721Z,50.29
2023-04-11T19:52:29.500Z,50.15
2023-04-11T19:54:56.993Z,50.17
2023-04-11T19:57:26.615Z,50.27
2023-04-11T19:59:53.404Z,50.49
2023-04-11T20:02:21.191Z,50.50
2023-04-11T20:04:48.179Z,50.58
2023-04-11T20:07:15.502Z,50.80
2023-04-11T20:09:42.297Z,50.55
2023-04-11T20:12:09.065Z,50.98
2023-04-11T20:14:37.207Z,50.75
2023-04-11T20:17:05.531Z,50.79
2023-04-11T20:19:33.107Z,50.91
2023-04-11T20:22:00.986Z,51.22
2023-04-11T20:24:27.837Z,51.21
2023-04-11T20:26:56.806Z,51.30
2023-04-11T20:29:32.394Z,51.21
2023-04-11T20:31:59.237Z,51.09
2023-04-11T20:34:26.035Z,51.11
2023-04-11T20:36:52.785Z,50.96
2023-04-11T20:39:19.657Z,51.47
2023-04-11T20:41:46.406Z,51.59
2023-04-11T20:44:17.859Z,51.26
2023-04-11T20:46:45.128Z,51.34
2023-04-11T20:49:11.933Z,51.45
2023-04-11T20:51:38.727Z,51.37
2023-04-11T20:54:05.713Z,51.84
2023-04-11T20:56:35.278Z,51.67
2023-04-11T20:59:02.803Z,51.66
2023-04-11T21:01:33.577Z,51.59
2023-04-11T21:04:04.033Z,51.70
2023-04-11T21:06:31.987Z,51.98
2023-04-11T21:09:00.302Z,51.82
2023-04-11T21:11:27.092Z,51.76
2023-04-11T21:13:54.528Z,51.72
2023-04-11T21:16:21.920Z,51.91
2023-04-11T21:18:48.982Z,51.93
2023-04-11T21:21:18.788Z,51.77
2023-04-11T21:23:45.628Z,52.05
2023-04-11T21:26:12.373Z,52.25
2023-04-11T21:28:39.217Z,52.15
2023-04-11T21:31:06.424Z,52.01
2023-04-11T21:33:33.233Z,51.87
2023-04-11T21:36:00.091Z,52.07
2023-04-11T21:38:26.893Z,51.93
2023-04-11T21:40:53.642Z,52.30
2023-04-11T21:43:20.419Z,52.03
2023-04-11T21:45:47.170Z,52.23
2023-04-11T21:48:14.936Z,51.94
2023-04-11T21:50:41.763Z,52.04
2023-04-11T21:53:08.538Z,51.94
2023-04-11T21:55:35.424Z,52.24
2023-04-11T21:58:02.229Z,52.31
2023-04-11T22:00:28.989Z,52.15
2023-04-11T22:02:56.015Z,52.25
2023-04-11T22:05:23.365Z,52.09
2023-04-11T22:07:50.697Z,52.32
2023-04-11T22:10:22.672Z,52.27
2023-04-11T22:12:50.523Z,52.23
2023-04-11T22:15:18.359Z,52.15
2023-04-11T22:17:50.210Z,52.49
2023-04-11T22:20:18.015Z,52.29
2023-04-11T22:22:45.020Z,52.24
2023-04-11T22:25:11.946Z,52.60
2023-04-11T22:27:39.010Z,52.47
2023-04-11T22:30:07.760Z,52.16
2023-04-11T22:32:34.738Z,52.61
2023-04-11T22:35:01.668Z,52.47
2023-04-11T22:37:28.499Z,52.37
2023-04-11T22:39:55.614Z,52.42
2023-04-11T22:42:22.364Z,52.54
2023-04-11T22:44:49.151Z,52.58
2023-04-11T22:47:16.626Z,52.76
2023-04-11T22:49:44.610Z,52.78
2023-04-11T22:52:15.479Z,52.53
2023-04-11T22:54:43.520Z,52.77
2023-04-11T22:57:10.450Z,52.88
2023-04-11T22:59:37.248Z,52.64
2023-04-11T23:02:04.174Z,52.70
2023-04-11T23:04:32.156Z,52.68
2023-04-11T23:06:59.289Z,53.13
2023-04-11T23:09:27.965Z,52.91
2023-04-11T23:11:54.711Z,53.18
2023-04-11T23:14:22.079Z,53.47
2023-04-11T23:16:48.914Z,53.56
2023-04-11T23:19:17.090Z,53.51
2023-04-11T23:21:44.638Z,53.45
2023-04-11T23:24:11.424Z,53.70
2023-04-11T23:26:38.221Z,53.54
2023-04-11T23:29:04.986Z,53.76
2023-04-11T23:31:32.533Z,53.68
2023-04-11T23:34:00.610Z,53.93
2023-04-11T23:36:30.605Z,54.01
2023-04-11T23:38:58.207Z,54.14
2023-04-11T23:41:25.084Z,54.21
2023-04-11T23:43:51.872Z,53.84
2023-04-11T23:46:18.704Z,54.05
2023-04-11T23:48:47.073Z,54.35
2023-04-11T23:51:14.603Z,54.27
2023-04-11T23:53:42.680Z,54.35
2023-04-11T23:56:09.766Z,54.54
2023-04-11T23:58:36.700Z,54.74
